createdAt,value
2019-04-21T00:02:30.780Z,32.98
2019-04-21T00:05:18.790Z,32.84
2019-04-21T00:07:43.477Z,32.67
2019-04-21T00:10:18.415Z,32.19
2019-04-21T00:12:49.265Z,32.77
2019-04-21T00:15:16.041Z,32.95
2019-04-21T00:17:35.064Z,32.99
2019-04-21T00:20:18.697Z,33.27
2019-04-21T00:22:51.996Z,33.12
2019-04-21T00:25:23.559Z,33.33
2019-04-21T00:28:02.928Z,34.49
2019-04-21T00:30:34.237Z,34.14
2019-04-21T00:32:54.096Z,33.49
2019-04-21T00:35:19.601Z,33.96
2019-04-21T00:38:08.275Z,33.84
2019-04-21T00:40:43.242Z,34.73
2019-04-21T00:43:04.267Z,34.54
2019-04-21T00:45:31.565Z,34.20
2019-04-21T00:48:09.915Z,34.42
2019-04-21T00:50:51.717Z,34.56
2019-04-21T00:53:24.185Z,34.99
2019-04-21T00:55:59.053Z,33.57
2019-04-21T00:58:28.006Z,31.85
2019-04-21T01:00:59.785Z,31.75
2019-04-21T01:03:26.674Z,31.48
2019-04-21T01:05:56.175Z,31.34
2019-04-21T01:08:30.245Z,31.20
2019-04-21T01:10:49.956Z,31.95
2019-04-21T01:13:36.273Z,31.97
2019-04-21T01:16:03.319Z,31.92
2019-04-21T01:18:32.651Z,32.66
2019-04-21T01:20:39.443Z,32.73
2019-04-21T01:23:08.981Z,32.49
2019-04-21T01:25:44.989Z,33.37
2019-04-21T01:28:27.466Z,34.13
2019-04-21T01:30:58.242Z,33.90
2019-04-21T01:33:34.917Z,33.56
2019-04-21T01:35:58.335Z,34.05
2019-04-21T01:38:34.306Z,33.67
2019-04-21T01:41:07.096Z,33.16
2019-04-21T01:43:38.371Z,34.08
2019-04-21T01:46:06.659Z,34.17
2019-04-21T01:48:30.675Z,34.48
2019-04-21T01:51:04.370Z,33.95
2019-04-21T01:53:42.463Z,33.75
2019-04-21T01:56:30.282Z,34.09
2019-04-21T01:58:53.226Z,33.83
2019-04-21T02:01:34.593Z,33.53
2019-04-21T02:04:02.775Z,33.11
2019-04-21T02:06:36.204Z,33.58
2019-04-21T02:09:03.378Z,34.27
2019-04-21T02:11:35.493Z,34.61
2019-04-21T02:14:23.002Z,35.10
2019-04-21T02:16:36.070Z,35.03
2019-04-21T02:19:04.460Z,34.80
2019-04-21T02:21:31.814Z,34.76
2019-04-21T02:24:14.847Z,34.55
2019-04-21T02:26:41.527Z,34.39
2019-04-21T02:29:15.409Z,35.99
2019-04-21T02:34:16.964Z,35.89
2019-04-21T02:39:21.134Z,35.25
2019-04-21T02:46:50.420Z,36.22
2019-04-21T02:49:35.485Z,34.48
2019-04-21T02:57:01.274Z,41.23
2019-04-21T03:02:17.124Z,39.94
2019-04-21T03:04:34.799Z,39.84
2019-04-21T03:07:14.975Z,39.91
2019-04-21T03:09:39.454Z,40.90
2019-04-21T03:12:16.816Z,44.35
2019-04-21T03:17:14.274Z,42.71
2019-04-21T03:20:19.139Z,40.82
2019-04-21T03:25:23.515Z,39.30
2019-04-21T03:35:14.928Z,39.00
2019-04-21T03:37:25.622Z,38.03
2019-04-21T03:39:56.841Z,39.01
2019-04-21T03:42:25.612Z,39.63
2019-04-21T03:44:56.906Z,38.09
2019-04-21T03:47:23.540Z,37.85
2019-04-21T03:49:54.561Z,38.27
2019-04-21T03:52:32.415Z,37.93
2019-04-21T04:08:31.876Z,40.52
2019-04-21T04:11:02.741Z,39.58
2019-04-21T04:13:34.193Z,37.75
2019-04-21T04:16:02.079Z,37.66
2019-04-21T04:18:41.143Z,37.72
2019-04-21T04:21:04.473Z,36.95
2019-04-21T04:23:35.303Z,36.60
2019-04-21T04:25:58.928Z,37.36
2019-04-21T04:28:40.274Z,37.75
2019-04-21T04:31:06.499Z,38.26
2019-04-21T04:33:43.666Z,38.59
2019-04-21T04:36:10.603Z,38.67
2019-04-21T04:38:41.555Z,38.93
2019-04-21T04:41:19.828Z,39.30
2019-04-21T04:43:57.286Z,39.62
2019-04-21T04:48:34.938Z,41.04
2019-04-21T04:51:17.063Z,39.82
2019-04-21T04:56:10.866Z,41.40
2019-04-21T04:59:15.948Z,39.98
2019-04-21T05:14:03.313Z,40.10
2019-04-21T05:23:49.827Z,39.32
2019-04-21T05:26:14.681Z,40.03
2019-04-21T05:28:44.891Z,39.93
2019-04-21T05:31:25.385Z,40.77
2019-04-21T05:33:59.092Z,39.49
2019-04-21T05:36:45.925Z,40.86
2019-04-21T05:39:14.687Z,42.43
2019-04-21T05:41:38.588Z,42.31
2019-04-21T05:44:28.019Z,41.33
2019-04-21T05:47:03.771Z,41.33
2019-04-21T05:49:29.363Z,41.26
2019-04-21T05:51:59.794Z,42.63
2019-04-21T05:57:05.987Z,43.12
2019-04-21T05:59:40.422Z,43.19
2019-04-21T06:02:19.121Z,42.58
2019-04-21T06:05:12.482Z,42.63
2019-04-21T06:07:18.971Z,41.33
2019-04-21T06:09:51.364Z,44.37
2019-04-21T06:12:13.481Z,46.46
2019-04-21T06:14:48.530Z,48.08
2019-04-21T06:19:49.418Z,44.69
2019-04-21T06:22:17.788Z,44.44
2019-04-21T06:25:13.426Z,44.24
2019-04-21T06:27:22.891Z,43.01
2019-04-21T06:29:50.217Z,42.52
2019-04-21T06:32:30.432Z,44.89
2019-04-21T06:40:15.270Z,47.13
2019-04-21T06:42:31.478Z,46.20
2019-04-21T06:45:07.211Z,46.18
2019-04-21T06:47:45.259Z,46.64
2019-04-21T06:50:00.416Z,45.43
2019-04-21T06:52:49.991Z,45.65
2019-04-21T06:55:10.244Z,46.42
2019-04-21T06:57:38.952Z,45.50
2019-04-21T07:00:14.979Z,45.75
2019-04-21T07:05:13.622Z,46.89
2019-04-21T07:07:52.091Z,47.07
2019-04-21T07:10:14.319Z,47.31
2019-04-21T07:12:43.009Z,46.97
2019-04-21T07:15:13.359Z,47.58
2019-04-21T07:17:46.941Z,45.42
2019-04-21T07:20:18.603Z,43.29
2019-04-21T07:22:50.956Z,43.82
2019-04-21T07:25:18.946Z,46.05
2019-04-21T07:27:47.423Z,46.71
2019-04-21T07:30:23.127Z,45.68
2019-04-21T07:32:56.267Z,45.71
2019-04-21T07:35:22.177Z,45.42
2019-04-21T07:37:53.668Z,43.66
2019-04-21T07:40:13.491Z,42.49
2019-04-21T07:42:48.056Z,41.02
2019-04-21T07:45:16.592Z,40.77
2019-04-21T07:47:55.104Z,42.08
2019-04-21T07:50:54.435Z,41.50
2019-04-21T07:53:27.837Z,42.83
2019-04-21T07:55:35.813Z,42.03
2019-04-21T07:58:26.575Z,41.94
2019-04-21T08:01:00.313Z,40.36
2019-04-21T08:03:28.594Z,39.78
2019-04-21T08:05:59.060Z,40.04
2019-04-21T08:08:26.522Z,41.43
2019-04-21T08:10:56.993Z,43.13
2019-04-21T08:15:59.544Z,32.64
2019-04-21T08:18:33.700Z,35.37
2019-04-21T08:20:59.666Z,36.12
2019-04-21T08:23:31.494Z,39.52
2019-04-21T08:26:04.743Z,39.22
2019-04-21T08:28:43.735Z,39.54
2019-04-21T08:31:10.318Z,39.96
2019-04-21T08:33:38.669Z,40.39
2019-04-21T08:36:25.472Z,40.60
2019-04-21T08:38:45.808Z,41.01
2019-04-21T08:41:11.058Z,41.65
2019-04-21T08:43:42.853Z,42.50
2019-04-21T08:46:13.735Z,40.81
2019-04-21T08:48:43.882Z,41.60
2019-04-21T08:53:47.588Z,42.69
2019-04-21T08:56:14.985Z,40.48
2019-04-21T08:59:09.528Z,39.88
2019-04-21T09:01:36.891Z,39.95
2019-04-21T09:04:11.689Z,39.07
2019-04-21T09:06:57.210Z,39.38
2019-04-21T09:09:14.276Z,38.13
2019-04-21T09:11:37.313Z,35.43
2019-04-21T09:14:07.767Z,37.47
2019-04-21T09:16:35.552Z,37.73
2019-04-21T09:19:04.390Z,37.62
2019-04-21T09:21:43.751Z,38.96
2019-04-21T09:24:11.647Z,37.21
2019-04-21T09:26:42.897Z,38.67
2019-04-21T09:29:04.349Z,39.50
2019-04-21T09:31:30.952Z,41.01
2019-04-21T09:33:59.249Z,39.64
2019-04-21T09:36:35.209Z,38.46
2019-04-21T09:39:06.618Z,38.64
2019-04-21T09:41:28.407Z,39.37
2019-04-21T09:43:59.714Z,37.52
2019-04-21T09:46:29.901Z,36.04
2019-04-21T09:49:02.594Z,36.43
2019-04-21T09:51:30.568Z,36.24
2019-04-21T09:54:05.826Z,36.39
2019-04-21T09:56:39.506Z,35.09
2019-04-21T09:59:09.194Z,38.05
2019-04-21T10:01:45.091Z,39.04
2019-04-21T10:04:05.226Z,35.29
2019-04-21T10:06:33.109Z,37.01
2019-04-21T10:09:04.711Z,38.08
2019-04-21T10:11:33.285Z,36.25
2019-04-21T10:14:03.210Z,35.97
2019-04-21T10:16:40.664Z,36.83
2019-04-21T10:19:11.182Z,36.60
2019-04-21T10:21:40.392Z,36.38
2019-04-21T10:24:13.043Z,35.56
2019-04-21T10:26:43.098Z,35.49
2019-04-21T10:29:19.744Z,35.38
2019-04-21T10:31:43.114Z,35.84
2019-04-21T10:34:13.416Z,36.39
2019-04-21T10:36:44.855Z,37.11
2019-04-21T10:39:13.811Z,36.52
2019-04-21T10:41:43.508Z,36.24
2019-04-21T10:44:13.499Z,34.06
2019-04-21T10:46:45.307Z,35.63
2019-04-21T10:49:13.134Z,35.13
2019-04-21T10:51:43.282Z,35.41
2019-04-21T10:54:13.604Z,36.94
2019-04-21T10:56:44.479Z,36.41
2019-04-21T10:59:14.290Z,36.70
2019-04-21T11:01:43.335Z,37.15
2019-04-21T11:04:20.309Z,38.81
2019-04-21T11:06:44.589Z,42.75
2019-04-21T11:09:14.083Z,40.22
2019-04-21T11:11:45.977Z,39.41
2019-04-21T11:14:13.726Z,39.57
2019-04-21T11:16:43.313Z,39.16
2019-04-21T11:19:13.741Z,37.75
2019-04-21T11:21:42.935Z,37.76
2019-04-21T11:24:12.382Z,38.34
2019-04-21T11:26:42.225Z,38.63
2019-04-21T11:29:12.864Z,39.00
2019-04-21T11:31:43.124Z,39.58
2019-04-21T11:34:13.419Z,40.44
2019-04-21T11:36:43.804Z,40.25
2019-04-21T11:39:28.741Z,39.54
2019-04-21T11:41:45.745Z,40.75
2019-04-21T11:44:14.618Z,39.17
2019-04-21T11:46:44.519Z,39.26
2019-04-21T11:49:13.557Z,38.73
2019-04-21T11:51:42.839Z,40.67
2019-04-21T11:54:12.899Z,39.62
2019-04-21T11:56:43.153Z,39.10
2019-04-21T11:59:12.321Z,39.51
2019-04-21T12:01:41.504Z,39.62
2019-04-21T12:04:11.742Z,39.26
2019-04-21T12:06:44.456Z,38.17
2019-04-21T12:09:12.469Z,38.26
2019-04-21T12:11:41.361Z,38.07
2019-04-21T12:14:12.086Z,38.24
2019-04-21T12:16:41.303Z,38.74
2019-04-21T12:19:10.902Z,38.14
2019-04-21T12:21:53.514Z,38.09
2019-04-21T12:24:11.151Z,40.29
2019-04-21T12:26:40.235Z,38.24
2019-04-21T12:29:10.109Z,39.52
2019-04-21T12:31:57.237Z,38.75
2019-04-21T12:34:26.265Z,38.83
2019-04-21T12:36:56.942Z,39.23
2019-04-21T12:39:27.088Z,37.80
2019-04-21T12:41:56.380Z,38.25
2019-04-21T12:44:25.600Z,36.50
2019-04-21T12:46:54.516Z,36.84
2019-04-21T12:49:23.404Z,37.70
2019-04-21T12:51:53.455Z,36.19
2019-04-21T12:54:23.748Z,35.37
2019-04-21T12:56:53.784Z,37.75
2019-04-21T12:59:24.490Z,39.39
2019-04-21T13:01:54.823Z,36.84
2019-04-21T13:04:26.014Z,37.71
2019-04-21T13:06:55.268Z,36.61
2019-04-21T13:09:27.429Z,36.53
2019-04-21T13:11:55.172Z,35.92
2019-04-21T13:14:26.289Z,35.36
2019-04-21T13:16:55.204Z,36.07
2019-04-21T13:19:25.262Z,35.39
2019-04-21T13:21:54.145Z,34.60
2019-04-21T13:24:24.132Z,35.02
2019-04-21T13:26:58.125Z,35.02
2019-04-21T13:29:23.982Z,35.50
2019-04-21T13:31:54.241Z,35.08
2019-04-21T13:34:24.124Z,35.15
2019-04-21T13:36:53.961Z,33.13
2019-04-21T13:39:50.268Z,31.86
2019-04-21T13:42:08.733Z,29.82
2019-04-21T13:44:28.802Z,31.16
2019-04-21T13:46:58.761Z,31.73
2019-04-21T13:49:27.716Z,29.24
2019-04-21T13:51:56.607Z,27.17
2019-04-21T13:54:27.421Z,27.15
2019-04-21T13:56:56.619Z,27.42
2019-04-21T13:59:26.447Z,27.95
2019-04-21T14:01:55.714Z,28.11
2019-04-21T14:04:27.309Z,27.63
2019-04-21T14:06:56.477Z,28.80
2019-04-21T14:09:35.790Z,28.47
2019-04-21T14:11:57.052Z,29.28
2019-04-21T14:14:26.281Z,29.03
2019-04-21T14:16:56.153Z,28.27
2019-04-21T14:19:25.570Z,28.47
2019-04-21T14:21:55.218Z,28.12
2019-04-21T14:24:24.650Z,26.42
2019-04-21T14:26:54.323Z,26.58
2019-04-21T14:29:23.810Z,27.60
2019-04-21T14:31:52.895Z,27.29
2019-04-21T14:34:22.010Z,28.73
2019-04-21T14:36:50.930Z,28.09
2019-04-21T14:39:20.835Z,29.35
2019-04-21T14:41:50.524Z,28.47
2019-04-21T14:44:20.737Z,29.86
2019-04-21T14:46:51.436Z,29.70
2019-04-21T14:49:28.993Z,29.10
2019-04-21T14:52:05.491Z,28.41
2019-04-21T14:54:36.453Z,28.91
2019-04-21T14:57:05.462Z,30.09
2019-04-21T14:59:35.191Z,29.84
2019-04-21T15:02:05.625Z,30.87
2019-04-21T15:04:35.607Z,31.04
2019-04-21T15:07:05.604Z,30.17
2019-04-21T15:09:37.166Z,33.53
2019-04-21T15:12:05.723Z,31.37
2019-04-21T15:14:35.994Z,31.22
2019-04-21T15:17:07.104Z,31.34
2019-04-21T15:19:35.928Z,31.43
2019-04-21T15:22:06.223Z,31.78
2019-04-21T15:24:36.254Z,31.81
2019-04-21T15:27:05.316Z,30.40
2019-04-21T15:29:35.008Z,29.80
2019-04-21T15:32:04.379Z,29.38
2019-04-21T15:34:34.006Z,29.19
2019-04-21T15:37:04.096Z,29.97
2019-04-21T15:39:34.064Z,30.00
2019-04-21T15:42:03.016Z,28.55
2019-04-21T15:44:32.930Z,29.56
2019-04-21T15:47:02.095Z,29.71
2019-04-21T15:49:40.498Z,29.84
2019-04-21T15:52:04.413Z,29.84
2019-04-21T15:54:34.393Z,29.41
2019-04-21T15:57:04.973Z,28.60
2019-04-21T15:59:36.749Z,28.21
2019-04-21T16:02:24.485Z,29.32
2019-04-21T16:04:54.765Z,27.72
2019-04-21T16:07:24.521Z,29.85
2019-04-21T16:09:54.331Z,28.20
2019-04-21T16:12:23.299Z,28.73
2019-04-21T16:14:52.552Z,27.65
2019-04-21T16:17:21.491Z,29.59
2019-04-21T16:19:50.383Z,28.34
2019-04-21T16:22:19.275Z,28.32
2019-04-21T16:24:48.165Z,27.89
2019-04-21T16:27:17.438Z,28.25
2019-04-21T16:29:47.843Z,29.35
2019-04-21T16:32:19.353Z,28.58
2019-04-21T16:34:54.210Z,29.20
2019-04-21T16:37:19.376Z,29.14
2019-04-21T16:39:49.531Z,29.70
2019-04-21T16:42:18.792Z,28.83
2019-04-21T16:44:48.913Z,28.76
2019-04-21T16:47:19.551Z,29.34
2019-04-21T16:49:49.872Z,29.14
2019-04-21T16:52:20.513Z,30.03
2019-04-21T16:54:58.301Z,30.35
2019-04-21T16:57:35.667Z,30.08
2019-04-21T17:00:08.734Z,29.38
2019-04-21T17:02:38.631Z,30.25
2019-04-21T17:05:12.074Z,30.52
2019-04-21T17:07:43.016Z,30.65
2019-04-21T17:10:12.854Z,30.04
2019-04-21T17:12:43.330Z,29.65
2019-04-21T17:15:28.269Z,29.19
2019-04-21T17:18:05.638Z,29.91
2019-04-21T17:20:28.670Z,30.18
2019-04-21T17:22:45.777Z,29.12
2019-04-21T17:25:16.171Z,29.47
2019-04-21T17:27:47.037Z,28.23
2019-04-21T17:30:16.643Z,28.23
2019-04-21T17:32:49.739Z,28.55
2019-04-21T17:35:16.689Z,27.46
2019-04-21T17:37:48.070Z,28.14
2019-04-21T17:40:19.926Z,27.92
2019-04-21T17:42:53.715Z,26.99
2019-04-21T17:45:19.655Z,27.12
2019-04-21T17:47:54.216Z,27.39
2019-04-21T17:50:23.398Z,27.98
2019-04-21T17:53:05.026Z,27.78
2019-04-21T17:55:40.647Z,27.48
2019-04-21T17:58:27.197Z,27.22
2019-04-21T18:01:10.817Z,27.39
2019-04-21T18:03:46.203Z,27.67
2019-04-21T18:05:59.524Z,27.07
2019-04-21T18:08:38.210Z,27.35
2019-04-21T18:10:56.932Z,27.11
2019-04-21T18:13:22.696Z,27.84
2019-04-21T18:16:01.526Z,31.72
2019-04-21T18:18:20.943Z,28.67
2019-04-21T18:21:04.896Z,28.99
2019-04-21T18:23:50.550Z,29.28
2019-04-21T18:26:27.159Z,29.46
2019-04-21T18:28:44.364Z,29.37
2019-04-21T18:31:16.415Z,29.54
2019-04-21T18:33:47.868Z,29.73
2019-04-21T18:36:32.328Z,29.33
2019-04-21T18:39:14.008Z,29.65
2019-04-21T18:41:36.644Z,29.16
2019-04-21T18:44:36.415Z,29.49
2019-04-21T18:47:05.429Z,29.41
2019-04-21T18:49:19.423Z,29.67
2019-04-21T18:51:59.672Z,29.63
2019-04-21T18:54:41.758Z,30.47
2019-04-21T18:57:05.417Z,30.76
2019-04-21T18:59:29.830Z,32.59
2019-04-21T19:02:04.275Z,30.52
2019-04-21T19:04:30.060Z,31.89
2019-04-21T19:07:15.565Z,31.66
2019-04-21T19:12:24.026Z,32.62
2019-04-21T19:14:46.125Z,33.00
2019-04-21T19:17:49.531Z,34.53
2019-04-21T19:19:54.560Z,34.37
2019-04-21T19:22:20.130Z,36.16
2019-04-21T19:24:52.230Z,36.60
2019-04-21T19:27:36.635Z,37.13
2019-04-21T19:32:27.226Z,37.53
2019-04-21T19:34:41.401Z,36.99
2019-04-21T19:37:16.403Z,37.10
2019-04-21T19:39:56.128Z,38.16
2019-04-21T19:42:25.643Z,38.39
2019-04-21T19:45:03.315Z,38.19
2019-04-21T19:47:35.437Z,38.19
2019-04-21T19:50:06.059Z,38.04
2019-04-21T19:52:30.978Z,38.44
2019-04-21T19:54:50.520Z,38.05
2019-04-21T19:57:18.767Z,38.38
2019-04-21T19:59:53.090Z,38.78
2019-04-21T20:02:18.671Z,39.11
2019-04-21T20:04:55.593Z,38.87
2019-04-21T20:07:32.887Z,39.65
2019-04-21T20:10:17.034Z,39.25
2019-04-21T20:12:41.179Z,38.49
2019-04-21T20:15:20.506Z,38.11
2019-04-21T20:17:36.434Z,38.49
2019-04-21T20:19:52.038Z,38.66
2019-04-21T20:22:26.166Z,38.92
2019-04-21T20:25:00.089Z,39.63
2019-04-21T20:27:36.019Z,40.03
2019-04-21T20:30:16.180Z,40.06
2019-04-21T20:32:47.019Z,41.16
2019-04-21T20:35:17.061Z,41.09
2019-04-21T20:37:41.904Z,42.32
2019-04-21T20:40:02.237Z,41.95
2019-04-21T20:42:42.524Z,41.29
2019-04-21T20:45:28.836Z,41.13
2019-04-21T20:47:37.611Z,41.39
2019-04-21T20:50:12.298Z,41.15
2019-04-21T20:52:48.005Z,41.40
2019-04-21T20:55:15.519Z,42.28
2019-04-21T20:57:49.319Z,45.09
2019-04-21T21:00:21.751Z,44.22
2019-04-21T21:02:58.170Z,43.02
2019-04-21T21:05:19.780Z,43.25
2019-04-21T21:08:01.216Z,43.76
2019-04-21T21:10:29.247Z,43.24
2019-04-21T21:13:06.177Z,43.56
2019-04-21T21:15:51.409Z,43.23
2019-04-21T21:18:26.829Z,43.65
2019-04-21T21:20:48.982Z,45.55
2019-04-21T21:23:14.493Z,44.52
2019-04-21T21:25:50.969Z,44.12
2019-04-21T21:28:17.052Z,43.39
2019-04-21T21:30:46.556Z,44.70
2019-04-21T21:33:25.645Z,44.01
2019-04-21T21:35:49.427Z,43.34
2019-04-21T21:38:28.540Z,44.93
2019-04-21T21:40:49.643Z,45.09
2019-04-21T21:43:16.638Z,43.98
2019-04-21T21:45:45.751Z,44.13
2019-04-21T21:48:26.406Z,44.79
2019-04-21T21:50:50.957Z,47.15
2019-04-21T21:53:16.368Z,45.16
2019-04-21T21:55:44.723Z,43.89
2019-04-21T21:58:19.422Z,42.92
2019-04-21T22:00:52.891Z,42.33
2019-04-21T22:03:27.180Z,43.44
2019-04-21T22:05:57.228Z,43.92
2019-04-21T22:08:20.564Z,44.09
2019-04-21T22:10:49.635Z,43.98
2019-04-21T22:13:21.901Z,43.56
2019-04-21T22:15:56.526Z,46.36
2019-04-21T22:18:39.057Z,45.24
2019-04-21T22:21:04.939Z,44.77
2019-04-21T22:23:29.505Z,44.76
2019-04-21T22:25:51.632Z,45.31
2019-04-21T22:28:22.025Z,44.45
2019-04-21T22:30:53.343Z,44.25
2019-04-21T22:33:23.312Z,43.82
2019-04-21T22:36:00.394Z,43.75
2019-04-21T22:38:40.201Z,44.03
2019-04-21T22:41:06.068Z,43.52
2019-04-21T22:43:29.145Z,43.25
2019-04-21T22:45:55.919Z,43.51
2019-04-21T22:48:28.331Z,43.42
2019-04-21T22:50:56.216Z,43.99
2019-04-21T22:53:29.298Z,44.48
2019-04-21T22:56:01.145Z,44.84
2019-04-21T22:58:31.709Z,44.62
2019-04-21T23:01:01.573Z,44.83
2019-04-21T23:03:28.859Z,45.72
2019-04-21T23:06:02.883Z,45.41
2019-04-21T23:08:33.186Z,45.00
2019-04-21T23:11:03.494Z,44.84
2019-04-21T23:13:30.920Z,44.69
2019-04-21T23:16:02.443Z,45.00
2019-04-21T23:18:48.040Z,45.27
2019-04-21T23:21:17.438Z,45.60
2019-04-21T23:23:51.819Z,46.76
2019-04-21T23:26:23.680Z,45.55
2019-04-21T23:28:52.458Z,45.62
2019-04-21T23:31:27.549Z,46.65
2019-04-21T23:33:34.822Z,45.99
2019-04-21T23:36:12.524Z,45.35
2019-04-21T23:38:41.750Z,44.64
2019-04-21T23:41:07.814Z,44.95
2019-04-21T23:43:37.195Z,45.22
2019-04-21T23:46:11.993Z,45.80
2019-04-21T23:48:56.208Z,45.80
2019-04-21T23:51:21.842Z,46.83
2019-04-21T23:53:39.423Z,46.77
2019-04-21T23:56:14.728Z,46.01
2019-04-21T23:58:40.362Z,46.51
